sensor_id;sensor_type;location;lat;lon;timestamp;P1;durP1;ratioP1;P2;durP2;ratioP2
75680;SDS011;64294;49.176;16.626;2022-12-13T00:00:23;7.05;;;3.75;;
75680;SDS011;64294;49.176;16.626;2022-12-13T00:02:49;6.28;;;3.40;;
75680;SDS011;64294;49.176;16.626;2022-12-13T00:05:14;8.45;;;3.70;;
75680;SDS011;64294;49.176;16.626;2022-12-13T00:07:39;7.38;;;3.55;;
75680;SDS011;64294;49.176;16.626;2022-12-13T00:10:05;8.52;;;4.22;;
75680;SDS011;64294;49.176;16.626;2022-12-13T00:12:30;7.25;;;3.42;;
75680;SDS011;64294;49.176;16.626;2022-12-13T00:14:56;7.22;;;3.65;;
75680;SDS011;64294;49.176;16.626;2022-12-13T00:17:21;9.77;;;3.67;;
75680;SDS011;64294;49.176;16.626;2022-12-13T00:19:47;7.20;;;3.75;;
75680;SDS011;64294;49.176;16.626;2022-12-13T00:22:13;10.82;;;4.43;;
75680;SDS011;64294;49.176;16.626;2022-12-13T00:24:39;8.93;;;4.57;;
75680;SDS011;64294;49.176;16.626;2022-12-13T00:27:05;8.00;;;4.30;;
75680;SDS011;64294;49.176;16.626;2022-12-13T00:29:33;9.27;;;4.05;;
75680;SDS011;64294;49.176;16.626;2022-12-13T00:31:59;10.40;;;5.07;;
75680;SDS011;64294;49.176;16.626;2022-12-13T00:34:24;10.10;;;5.40;;
75680;SDS011;64294;49.176;16.626;2022-12-13T00:36:50;11.63;;;4.80;;
75680;SDS011;64294;49.176;16.626;2022-12-13T00:39:17;8.60;;;4.22;;
75680;SDS011;64294;49.176;16.626;2022-12-13T00:41:43;9.18;;;4.30;;
75680;SDS011;64294;49.176;16.626;2022-12-13T00:44:09;10.00;;;4.53;;
75680;SDS011;64294;49.176;16.626;2022-12-13T00:46:36;8.65;;;3.85;;
75680;SDS011;64294;49.176;16.626;2022-12-13T00:49:02;7.45;;;3.90;;
75680;SDS011;64294;49.176;16.626;2022-12-13T00:51:29;8.43;;;4.40;;
75680;SDS011;64294;49.176;16.626;2022-12-13T00:53:56;7.93;;;3.80;;
75680;SDS011;64294;49.176;16.626;2022-12-13T00:56:24;8.40;;;4.03;;
75680;SDS011;64294;49.176;16.626;2022-12-13T00:58:52;8.25;;;4.18;;
75680;SDS011;64294;49.176;16.626;2022-12-13T01:01:19;8.70;;;3.92;;
75680;SDS011;64294;49.176;16.626;2022-12-13T01:03:48;8.73;;;3.83;;
75680;SDS011;64294;49.176;16.626;2022-12-13T01:06:15;8.45;;;3.88;;
75680;SDS011;64294;49.176;16.626;2022-12-13T01:08:43;8.00;;;4.35;;
75680;SDS011;64294;49.176;16.626;2022-12-13T01:11:09;8.13;;;4.25;;
75680;SDS011;64294;49.176;16.626;2022-12-13T01:13:36;8.18;;;3.85;;
75680;SDS011;64294;49.176;16.626;2022-12-13T01:16:03;7.10;;;4.00;;
75680;SDS011;64294;49.176;16.626;2022-12-13T01:18:30;9.85;;;4.00;;
75680;SDS011;64294;49.176;16.626;2022-12-13T01:21:15;9.32;;;4.18;;
75680;SDS011;64294;49.176;16.626;2022-12-13T01:23:42;7.75;;;4.18;;
75680;SDS011;64294;49.176;16.626;2022-12-13T01:26:10;8.50;;;4.15;;
75680;SDS011;64294;49.176;16.626;2022-12-13T01:28:40;10.07;;;4.00;;
75680;SDS011;64294;49.176;16.626;2022-12-13T01:31:10;7.38;;;3.70;;
75680;SDS011;64294;49.176;16.626;2022-12-13T01:33:40;8.82;;;4.07;;
75680;SDS011;64294;49.176;16.626;2022-12-13T01:36:07;9.27;;;4.85;;
75680;SDS011;64294;49.176;16.626;2022-12-13T01:38:35;10.57;;;4.78;;
75680;SDS011;64294;49.176;16.626;2022-12-13T01:41:01;8.73;;;4.22;;
75680;SDS011;64294;49.176;16.626;2022-12-13T01:46:01;12.38;;;4.43;;
75680;SDS011;64294;49.176;16.626;2022-12-13T01:48:32;7.65;;;4.00;;
75680;SDS011;64294;49.176;16.626;2022-12-13T01:51:03;9.98;;;4.80;;
75680;SDS011;64294;49.176;16.626;2022-12-13T01:53:32;9.70;;;4.63;;
75680;SDS011;64294;49.176;16.626;2022-12-13T01:56:01;10.00;;;4.45;;
75680;SDS011;64294;49.176;16.626;2022-12-13T01:58:33;9.07;;;4.07;;
75680;SDS011;64294;49.176;16.626;2022-12-13T02:00:59;8.30;;;4.22;;
75680;SDS011;64294;49.176;16.626;2022-12-13T02:03:25;9.13;;;4.32;;
75680;SDS011;64294;49.176;16.626;2022-12-13T02:05:55;8.65;;;4.15;;
75680;SDS011;64294;49.176;16.626;2022-12-13T02:08:25;10.18;;;4.13;;
75680;SDS011;64294;49.176;16.626;2022-12-13T02:10:50;9.63;;;4.05;;
75680;SDS011;64294;49.176;16.626;2022-12-13T02:13:16;6.55;;;3.88;;
75680;SDS011;64294;49.176;16.626;2022-12-13T02:15:43;8.20;;;4.05;;
75680;SDS011;64294;49.176;16.626;2022-12-13T02:18:25;9.50;;;4.15;;
75680;SDS011;64294;49.176;16.626;2022-12-13T02:21:30;9.30;;;4.32;;
75680;SDS011;64294;49.176;16.626;2022-12-13T02:35:05;8.30;;;4.00;;
75680;SDS011;64294;49.176;16.626;2022-12-13T02:40:18;9.40;;;4.35;;
75680;SDS011;64294;49.176;16.626;2022-12-13T02:45:48;10.23;;;4.38;;
75680;SDS011;64294;49.176;16.626;2022-12-13T02:48:18;9.20;;;4.18;;
75680;SDS011;64294;49.176;16.626;2022-12-13T02:50:52;9.80;;;4.18;;
75680;SDS011;64294;49.176;16.626;2022-12-13T02:53:20;8.77;;;4.18;;
75680;SDS011;64294;49.176;16.626;2022-12-13T02:55:47;9.32;;;4.40;;
75680;SDS011;64294;49.176;16.626;2022-12-13T02:58:13;8.00;;;3.75;;
75680;SDS011;64294;49.176;16.626;2022-12-13T03:01:01;8.93;;;3.63;;
75680;SDS011;64294;49.176;16.626;2022-12-13T03:09:05;9.23;;;3.75;;
75680;SDS011;64294;49.176;16.626;2022-12-13T03:17:42;8.45;;;3.90;;
75680;SDS011;64294;49.176;16.626;2022-12-13T03:20:17;8.32;;;4.13;;
75680;SDS011;64294;49.176;16.626;2022-12-13T03:22:46;8.32;;;3.85;;
75680;SDS011;64294;49.176;16.626;2022-12-13T03:25:12;8.27;;;3.55;;
75680;SDS011;64294;49.176;16.626;2022-12-13T03:27:38;7.90;;;4.20;;
75680;SDS011;64294;49.176;16.626;2022-12-13T03:30:04;8.45;;;4.47;;
75680;SDS011;64294;49.176;16.626;2022-12-13T03:32:30;8.93;;;4.20;;
75680;SDS011;64294;49.176;16.626;2022-12-13T03:34:56;11.63;;;4.25;;
75680;SDS011;64294;49.176;16.626;2022-12-13T03:37:21;9.07;;;4.25;;
75680;SDS011;64294;49.176;16.626;2022-12-13T03:39:46;10.13;;;4.53;;
75680;SDS011;64294;49.176;16.626;2022-12-13T03:42:12;10.90;;;4.75;;
75680;SDS011;64294;49.176;16.626;2022-12-13T03:44:37;10.57;;;4.35;;
75680;SDS011;64294;49.176;16.626;2022-12-13T03:47:03;10.95;;;4.60;;
75680;SDS011;64294;49.176;16.626;2022-12-13T03:49:28;13.23;;;4.45;;
75680;SDS011;64294;49.176;16.626;2022-12-13T03:51:53;10.43;;;5.13;;
75680;SDS011;64294;49.176;16.626;2022-12-13T03:54:18;11.07;;;5.20;;
75680;SDS011;64294;49.176;16.626;2022-12-13T03:56:44;11.18;;;4.97;;
75680;SDS011;64294;49.176;16.626;2022-12-13T03:59:10;10.90;;;4.88;;
75680;SDS011;64294;49.176;16.626;2022-12-13T04:01:36;12.02;;;5.20;;
75680;SDS011;64294;49.176;16.626;2022-12-13T04:04:01;8.80;;;4.68;;
75680;SDS011;64294;49.176;16.626;2022-12-13T04:06:26;8.25;;;3.90;;
75680;SDS011;64294;49.176;16.626;2022-12-13T04:08:52;9.13;;;4.07;;
75680;SDS011;64294;49.176;16.626;2022-12-13T04:11:17;8.30;;;3.92;;
75680;SDS011;64294;49.176;16.626;2022-12-13T04:14:02;8.45;;;3.60;;
75680;SDS011;64294;49.176;16.626;2022-12-13T04:16:27;10.98;;;3.75;;
75680;SDS011;64294;49.176;16.626;2022-12-13T04:18:52;10.07;;;4.40;;
75680;SDS011;64294;49.176;16.626;2022-12-13T04:21:17;8.15;;;4.05;;
75680;SDS011;64294;49.176;16.626;2022-12-13T04:23:43;7.82;;;3.10;;
75680;SDS011;64294;49.176;16.626;2022-12-13T04:26:08;11.05;;;3.35;;
75680;SDS011;64294;49.176;16.626;2022-12-13T04:28:34;7.93;;;3.08;;
75680;SDS011;64294;49.176;16.626;2022-12-13T04:30:59;7.00;;;3.15;;
75680;SDS011;64294;49.176;16.626;2022-12-13T04:33:25;6.38;;;3.10;;
75680;SDS011;64294;49.176;16.626;2022-12-13T04:35:50;8.30;;;3.40;;
75680;SDS011;64294;49.176;16.626;2022-12-13T04:38:16;8.68;;;3.35;;
75680;SDS011;64294;49.176;16.626;2022-12-13T04:40:42;9.18;;;3.13;;
75680;SDS011;64294;49.176;16.626;2022-12-13T04:43:07;9.30;;;3.00;;
75680;SDS011;64294;49.176;16.626;2022-12-13T04:45:33;7.65;;;3.40;;
75680;SDS011;64294;49.176;16.626;2022-12-13T04:47:58;7.20;;;3.28;;
75680;SDS011;64294;49.176;16.626;2022-12-13T04:50:23;9.10;;;3.20;;
75680;SDS011;64294;49.176;16.626;2022-12-13T04:52:49;6.18;;;2.90;;
75680;SDS011;64294;49.176;16.626;2022-12-13T04:55:14;7.47;;;3.00;;
75680;SDS011;64294;49.176;16.626;2022-12-13T04:57:40;5.38;;;2.63;;
75680;SDS011;64294;49.176;16.626;2022-12-13T05:00:06;6.28;;;2.67;;
75680;SDS011;64294;49.176;16.626;2022-12-13T05:02:34;7.18;;;3.20;;
75680;SDS011;64294;49.176;16.626;2022-12-13T05:05:00;5.93;;;3.03;;
75680;SDS011;64294;49.176;16.626;2022-12-13T05:07:26;7.75;;;2.88;;
75680;SDS011;64294;49.176;16.626;2022-12-13T05:09:51;6.25;;;2.90;;
75680;SDS011;64294;49.176;16.626;2022-12-13T05:12:17;6.28;;;3.05;;
75680;SDS011;64294;49.176;16.626;2022-12-13T05:14:42;7.13;;;2.97;;
75680;SDS011;64294;49.176;16.626;2022-12-13T05:17:07;7.22;;;2.65;;
75680;SDS011;64294;49.176;16.626;2022-12-13T05:19:33;5.50;;;2.75;;
75680;SDS011;64294;49.176;16.626;2022-12-13T05:21:58;9.10;;;3.05;;
75680;SDS011;64294;49.176;16.626;2022-12-13T05:24:24;6.40;;;2.85;;
75680;SDS011;64294;49.176;16.626;2022-12-13T05:26:49;11.43;;;3.35;;
75680;SDS011;64294;49.176;16.626;2022-12-13T05:29:15;10.80;;;3.10;;
75680;SDS011;64294;49.176;16.626;2022-12-13T05:31:41;10.75;;;3.50;;
75680;SDS011;64294;49.176;16.626;2022-12-13T05:34:06;9.35;;;4.18;;
75680;SDS011;64294;49.176;16.626;2022-12-13T05:36:32;12.90;;;4.18;;
75680;SDS011;64294;49.176;16.626;2022-12-13T05:38:57;10.38;;;3.88;;
75680;SDS011;64294;49.176;16.626;2022-12-13T05:41:22;8.70;;;4.03;;
75680;SDS011;64294;49.176;16.626;2022-12-13T05:43:49;9.10;;;3.42;;
75680;SDS011;64294;49.176;16.626;2022-12-13T05:46:15;9.27;;;3.72;;
75680;SDS011;64294;49.176;16.626;2022-12-13T05:48:40;8.05;;;3.55;;
75680;SDS011;64294;49.176;16.626;2022-12-13T05:51:06;12.10;;;3.72;;
75680;SDS011;64294;49.176;16.626;2022-12-13T05:53:32;14.18;;;4.32;;
75680;SDS011;64294;49.176;16.626;2022-12-13T05:55:58;10.32;;;4.10;;
75680;SDS011;64294;49.176;16.626;2022-12-13T05:58:24;8.75;;;3.40;;
75680;SDS011;64294;49.176;16.626;2022-12-13T06:00:49;8.93;;;3.20;;
75680;SDS011;64294;49.176;16.626;2022-12-13T06:03:14;6.85;;;3.05;;
75680;SDS011;64294;49.176;16.626;2022-12-13T06:05:40;9.65;;;3.58;;
75680;SDS011;64294;49.176;16.626;2022-12-13T06:08:09;10.00;;;3.88;;
75680;SDS011;64294;49.176;16.626;2022-12-13T06:10:34;6.40;;;3.25;;
75680;SDS011;64294;49.176;16.626;2022-12-13T06:13:00;8.75;;;3.10;;
75680;SDS011;64294;49.176;16.626;2022-12-13T06:15:25;8.45;;;3.40;;
75680;SDS011;64294;49.176;16.626;2022-12-13T06:17:51;7.70;;;3.22;;
75680;SDS011;64294;49.176;16.626;2022-12-13T06:20:16;9.15;;;3.42;;
75680;SDS011;64294;49.176;16.626;2022-12-13T06:22:42;7.93;;;3.38;;
75680;SDS011;64294;49.176;16.626;2022-12-13T06:25:07;9.05;;;3.55;;
75680;SDS011;64294;49.176;16.626;2022-12-13T06:27:33;8.63;;;3.55;;
75680;SDS011;64294;49.176;16.626;2022-12-13T06:29:58;8.82;;;3.40;;
75680;SDS011;64294;49.176;16.626;2022-12-13T06:32:23;7.35;;;3.85;;
75680;SDS011;64294;49.176;16.626;2022-12-13T06:34:49;8.57;;;3.60;;
75680;SDS011;64294;49.176;16.626;2022-12-13T06:37:14;13.60;;;4.32;;
75680;SDS011;64294;49.176;16.626;2022-12-13T06:39:39;7.50;;;3.35;;
75680;SDS011;64294;49.176;16.626;2022-12-13T06:42:06;9.90;;;3.72;;
75680;SDS011;64294;49.176;16.626;2022-12-13T06:44:39;8.90;;;3.83;;
75680;SDS011;64294;49.176;16.626;2022-12-13T06:47:05;12.48;;;4.20;;
75680;SDS011;64294;49.176;16.626;2022-12-13T06:49:30;10.75;;;3.65;;
75680;SDS011;64294;49.176;16.626;2022-12-13T06:51:56;10.77;;;4.18;;
75680;SDS011;64294;49.176;16.626;2022-12-13T06:54:21;8.80;;;3.90;;
75680;SDS011;64294;49.176;16.626;2022-12-13T06:56:46;8.88;;;4.07;;
75680;SDS011;64294;49.176;16.626;2022-12-13T06:59:11;10.05;;;3.60;;
75680;SDS011;64294;49.176;16.626;2022-12-13T07:01:37;5.97;;;3.10;;
75680;SDS011;64294;49.176;16.626;2022-12-13T07:04:03;4.95;;;2.70;;
75680;SDS011;64294;49.176;16.626;2022-12-13T07:06:29;8.13;;;3.17;;
75680;SDS011;64294;49.176;16.626;2022-12-13T07:08:55;5.00;;;2.65;;
75680;SDS011;64294;49.176;16.626;2022-12-13T07:11:25;6.65;;;2.80;;
75680;SDS011;64294;49.176;16.626;2022-12-13T07:13:53;5.22;;;2.65;;
75680;SDS011;64294;49.176;16.626;2022-12-13T07:16:19;7.50;;;3.58;;
75680;SDS011;64294;49.176;16.626;2022-12-13T07:18:46;14.93;;;3.75;;
75680;SDS011;64294;49.176;16.626;2022-12-13T07:21:12;12.55;;;4.93;;
75680;SDS011;64294;49.176;16.626;2022-12-13T07:23:38;8.50;;;3.78;;
75680;SDS011;64294;49.176;16.626;2022-12-13T07:26:05;14.50;;;5.30;;
75680;SDS011;64294;49.176;16.626;2022-12-13T07:28:32;11.10;;;5.18;;
75680;SDS011;64294;49.176;16.626;2022-12-13T07:31:02;15.73;;;5.10;;
75680;SDS011;64294;49.176;16.626;2022-12-13T07:33:28;12.10;;;5.45;;
75680;SDS011;64294;49.176;16.626;2022-12-13T07:36:00;14.50;;;5.28;;
75680;SDS011;64294;49.176;16.626;2022-12-13T07:38:28;14.05;;;5.53;;
75680;SDS011;64294;49.176;16.626;2022-12-13T07:40:55;10.25;;;4.43;;
75680;SDS011;64294;49.176;16.626;2022-12-13T07:43:21;13.05;;;4.75;;
75680;SDS011;64294;49.176;16.626;2022-12-13T07:45:46;13.80;;;5.63;;
75680;SDS011;64294;49.176;16.626;2022-12-13T07:48:12;15.20;;;5.43;;
75680;SDS011;64294;49.176;16.626;2022-12-13T07:50:37;11.85;;;4.70;;
75680;SDS011;64294;49.176;16.626;2022-12-13T07:53:04;10.48;;;4.72;;
75680;SDS011;64294;49.176;16.626;2022-12-13T07:55:30;10.68;;;5.00;;
75680;SDS011;64294;49.176;16.626;2022-12-13T07:58:01;9.35;;;4.30;;
75680;SDS011;64294;49.176;16.626;2022-12-13T08:00:37;8.60;;;3.70;;
75680;SDS011;64294;49.176;16.626;2022-12-13T08:03:04;8.82;;;3.55;;
75680;SDS011;64294;49.176;16.626;2022-12-13T08:05:30;7.30;;;3.58;;
75680;SDS011;64294;49.176;16.626;2022-12-13T08:07:58;9.65;;;3.67;;
75680;SDS011;64294;49.176;16.626;2022-12-13T08:10:23;8.40;;;4.22;;
75680;SDS011;64294;49.176;16.626;2022-12-13T08:12:49;8.27;;;4.53;;
75680;SDS011;64294;49.176;16.626;2022-12-13T08:15:14;7.82;;;4.10;;
75680;SDS011;64294;49.176;16.626;2022-12-13T08:17:40;7.32;;;3.80;;
75680;SDS011;64294;49.176;16.626;2022-12-13T08:20:06;6.47;;;3.38;;
75680;SDS011;64294;49.176;16.626;2022-12-13T08:22:32;11.55;;;3.80;;
75680;SDS011;64294;49.176;16.626;2022-12-13T08:24:57;9.13;;;4.43;;
75680;SDS011;64294;49.176;16.626;2022-12-13T08:27:22;11.75;;;4.80;;
75680;SDS011;64294;49.176;16.626;2022-12-13T08:29:48;7.47;;;4.38;;
75680;SDS011;64294;49.176;16.626;2022-12-13T08:32:13;9.02;;;4.50;;
75680;SDS011;64294;49.176;16.626;2022-12-13T08:34:38;7.93;;;4.35;;
75680;SDS011;64294;49.176;16.626;2022-12-13T08:37:05;12.30;;;5.05;;
75680;SDS011;64294;49.176;16.626;2022-12-13T08:39:31;10.75;;;4.25;;
75680;SDS011;64294;49.176;16.626;2022-12-13T08:42:01;12.05;;;3.75;;
75680;SDS011;64294;49.176;16.626;2022-12-13T08:44:27;8.93;;;4.82;;
75680;SDS011;64294;49.176;16.626;2022-12-13T08:46:52;7.88;;;4.25;;
75680;SDS011;64294;49.176;16.626;2022-12-13T08:49:18;6.80;;;4.00;;
75680;SDS011;64294;49.176;16.626;2022-12-13T08:51:43;6.80;;;3.80;;
75680;SDS011;64294;49.176;16.626;2022-12-13T08:54:08;8.75;;;4.68;;
75680;SDS011;64294;49.176;16.626;2022-12-13T08:56:34;8.30;;;4.30;;
75680;SDS011;64294;49.176;16.626;2022-12-13T08:59:00;7.95;;;4.72;;
75680;SDS011;64294;49.176;16.626;2022-12-13T09:01:25;7.82;;;4.43;;
75680;SDS011;64294;49.176;16.626;2022-12-13T09:03:50;9.60;;;4.43;;
75680;SDS011;64294;49.176;16.626;2022-12-13T09:06:16;6.82;;;3.83;;
75680;SDS011;64294;49.176;16.626;2022-12-13T09:08:42;7.25;;;3.95;;
75680;SDS011;64294;49.176;16.626;2022-12-13T09:11:08;8.02;;;4.68;;
75680;SDS011;64294;49.176;16.626;2022-12-13T09:13:35;8.65;;;4.28;;
75680;SDS011;64294;49.176;16.626;2022-12-13T09:16:05;6.78;;;3.80;;
75680;SDS011;64294;49.176;16.626;2022-12-13T09:18:33;9.57;;;4.60;;
75680;SDS011;64294;49.176;16.626;2022-12-13T09:20:59;17.15;;;5.38;;
75680;SDS011;64294;49.176;16.626;2022-12-13T09:23:24;13.52;;;5.13;;
75680;SDS011;64294;49.176;16.626;2022-12-13T09:25:56;11.68;;;5.18;;
75680;SDS011;64294;49.176;16.626;2022-12-13T09:28:27;14.63;;;5.63;;
75680;SDS011;64294;49.176;16.626;2022-12-13T09:30:53;11.38;;;5.30;;
75680;SDS011;64294;49.176;16.626;2022-12-13T09:33:20;24.02;;;6.38;;
75680;SDS011;64294;49.176;16.626;2022-12-13T09:35:45;15.30;;;5.15;;
75680;SDS011;64294;49.176;16.626;2022-12-13T09:38:11;15.07;;;5.30;;
75680;SDS011;64294;49.176;16.626;2022-12-13T09:40:36;11.85;;;4.50;;
75680;SDS011;64294;49.176;16.626;2022-12-13T09:43:02;8.48;;;4.50;;
75680;SDS011;64294;49.176;16.626;2022-12-13T09:45:29;8.05;;;4.05;;
75680;SDS011;64294;49.176;16.626;2022-12-13T09:47:57;8.80;;;4.80;;
75680;SDS011;64294;49.176;16.626;2022-12-13T09:52:54;7.70;;;4.32;;
75680;SDS011;64294;49.176;16.626;2022-12-13T09:57:49;7.15;;;4.35;;
75680;SDS011;64294;49.176;16.626;2022-12-13T10:00:17;8.80;;;4.72;;
75680;SDS011;64294;49.176;16.626;2022-12-13T10:02:45;7.53;;;3.92;;
75680;SDS011;64294;49.176;16.626;2022-12-13T10:07:41;23.48;;;5.47;;
75680;SDS011;64294;49.176;16.626;2022-12-13T10:10:10;9.82;;;4.55;;
75680;SDS011;64294;49.176;16.626;2022-12-13T10:12:43;10.15;;;4.47;;
75680;SDS011;64294;49.176;16.626;2022-12-13T10:15:15;12.63;;;4.75;;
75680;SDS011;64294;49.176;16.626;2022-12-13T10:17:43;9.15;;;4.65;;
75680;SDS011;64294;49.176;16.626;2022-12-13T10:20:19;9.57;;;4.30;;
75680;SDS011;64294;49.176;16.626;2022-12-13T10:22:46;8.90;;;4.20;;
75680;SDS011;64294;49.176;16.626;2022-12-13T10:25:12;11.93;;;4.45;;
75680;SDS011;64294;49.176;16.626;2022-12-13T10:30:10;7.13;;;4.10;;
75680;SDS011;64294;49.176;16.626;2022-12-13T10:33:17;10.77;;;5.43;;
75680;SDS011;64294;49.176;16.626;2022-12-13T10:35:30;7.32;;;4.18;;
75680;SDS011;64294;49.176;16.626;2022-12-13T10:38:01;8.98;;;4.20;;
75680;SDS011;64294;49.176;16.626;2022-12-13T10:40:39;7.55;;;4.15;;
75680;SDS011;64294;49.176;16.626;2022-12-13T10:43:14;8.85;;;3.83;;
75680;SDS011;64294;49.176;16.626;2022-12-13T10:51:06;7.25;;;4.00;;
75680;SDS011;64294;49.176;16.626;2022-12-13T10:56:09;11.68;;;4.80;;
75680;SDS011;64294;49.176;16.626;2022-12-13T10:58:38;12.30;;;4.90;;
75680;SDS011;64294;49.176;16.626;2022-12-13T11:01:08;13.13;;;4.78;;
75680;SDS011;64294;49.176;16.626;2022-12-13T11:03:34;13.65;;;5.22;;
75680;SDS011;64294;49.176;16.626;2022-12-13T11:06:03;10.98;;;4.68;;
75680;SDS011;64294;49.176;16.626;2022-12-13T11:08:37;10.57;;;4.28;;
75680;SDS011;64294;49.176;16.626;2022-12-13T11:11:03;10.63;;;4.68;;
75680;SDS011;64294;49.176;16.626;2022-12-13T11:13:46;21.80;;;5.18;;
75680;SDS011;64294;49.176;16.626;2022-12-13T11:16:50;13.02;;;4.70;;
75680;SDS011;64294;49.176;16.626;2022-12-13T11:19:17;7.57;;;3.92;;
75680;SDS011;64294;49.176;16.626;2022-12-13T11:21:47;10.77;;;4.65;;
75680;SDS011;64294;49.176;16.626;2022-12-13T11:30:08;12.20;;;4.78;;
75680;SDS011;64294;49.176;16.626;2022-12-13T11:32:47;11.45;;;4.90;;
75680;SDS011;64294;49.176;16.626;2022-12-13T11:35:25;10.20;;;4.30;;
75680;SDS011;64294;49.176;16.626;2022-12-13T11:38:04;10.40;;;5.37;;
75680;SDS011;64294;49.176;16.626;2022-12-13T11:40:54;10.85;;;4.13;;
75680;SDS011;64294;49.176;16.626;2022-12-13T11:46:13;9.43;;;4.40;;
75680;SDS011;64294;49.176;16.626;2022-12-13T11:48:57;8.40;;;4.40;;
75680;SDS011;64294;49.176;16.626;2022-12-13T11:51:29;12.45;;;4.40;;
75680;SDS011;64294;49.176;16.626;2022-12-13T11:54:03;10.13;;;4.68;;
75680;SDS011;64294;49.176;16.626;2022-12-13T11:56:40;11.20;;;4.40;;
75680;SDS011;64294;49.176;16.626;2022-12-13T12:01:54;13.05;;;4.45;;
75680;SDS011;64294;49.176;16.626;2022-12-13T12:04:43;10.25;;;4.40;;
75680;SDS011;64294;49.176;16.626;2022-12-13T12:07:13;10.98;;;4.68;;
75680;SDS011;64294;49.176;16.626;2022-12-13T12:09:41;10.18;;;3.95;;
75680;SDS011;64294;49.176;16.626;2022-12-13T12:12:15;11.38;;;4.03;;
75680;SDS011;64294;49.176;16.626;2022-12-13T12:15:01;14.52;;;4.55;;
75680;SDS011;64294;49.176;16.626;2022-12-13T12:17:34;8.88;;;4.25;;
75680;SDS011;64294;49.176;16.626;2022-12-13T12:19:59;7.50;;;4.00;;
75680;SDS011;64294;49.176;16.626;2022-12-13T12:22:33;9.88;;;4.40;;
75680;SDS011;64294;49.176;16.626;2022-12-13T12:30:52;8.25;;;4.32;;
75680;SDS011;64294;49.176;16.626;2022-12-13T12:39:33;7.40;;;3.70;;
75680;SDS011;64294;49.176;16.626;2022-12-13T12:44:38;8.50;;;4.28;;
75680;SDS011;64294;49.176;16.626;2022-12-13T13:03:39;9.27;;;4.50;;
75680;SDS011;64294;49.176;16.626;2022-12-13T13:06:15;8.13;;;4.30;;
75680;SDS011;64294;49.176;16.626;2022-12-13T13:08:47;7.38;;;4.20;;
75680;SDS011;64294;49.176;16.626;2022-12-13T13:11:26;9.68;;;4.13;;
75680;SDS011;64294;49.176;16.626;2022-12-13T13:16:35;8.18;;;4.10;;
75680;SDS011;64294;49.176;16.626;2022-12-13T13:19:38;10.13;;;4.47;;
75680;SDS011;64294;49.176;16.626;2022-12-13T13:21:56;8.55;;;4.57;;
75680;SDS011;64294;49.176;16.626;2022-12-13T13:29:35;7.90;;;4.10;;
75680;SDS011;64294;49.176;16.626;2022-12-13T13:34:37;9.13;;;4.45;;
75680;SDS011;64294;49.176;16.626;2022-12-13T13:37:07;12.27;;;5.18;;
75680;SDS011;64294;49.176;16.626;2022-12-13T13:39:55;11.50;;;4.88;;
75680;SDS011;64294;49.176;16.626;2022-12-13T13:45:27;9.63;;;4.90;;
75680;SDS011;64294;49.176;16.626;2022-12-13T13:48:01;8.45;;;4.40;;
75680;SDS011;64294;49.176;16.626;2022-12-13T13:53:41;12.98;;;4.93;;
75680;SDS011;64294;49.176;16.626;2022-12-13T13:56:59;11.02;;;5.20;;
75680;SDS011;64294;49.176;16.626;2022-12-13T13:59:46;12.27;;;4.85;;
75680;SDS011;64294;49.176;16.626;2022-12-13T14:30:25;11.95;;;5.10;;
75680;SDS011;64294;49.176;16.626;2022-12-13T14:32:50;10.93;;;5.00;;
75680;SDS011;64294;49.176;16.626;2022-12-13T14:35:20;13.65;;;5.40;;
75680;SDS011;64294;49.176;16.626;2022-12-13T14:38:03;11.00;;;4.97;;
75680;SDS011;64294;49.176;16.626;2022-12-13T14:40:31;11.05;;;4.95;;
75680;SDS011;64294;49.176;16.626;2022-12-13T14:43:01;10.32;;;5.47;;
75680;SDS011;64294;49.176;16.626;2022-12-13T14:45:28;11.38;;;5.43;;
75680;SDS011;64294;49.176;16.626;2022-12-13T14:48:11;10.40;;;5.40;;
75680;SDS011;64294;49.176;16.626;2022-12-13T14:50:39;9.73;;;5.15;;
75680;SDS011;64294;49.176;16.626;2022-12-13T14:53:14;11.95;;;5.38;;
75680;SDS011;64294;49.176;16.626;2022-12-13T14:56:02;12.73;;;5.43;;
75680;SDS011;64294;49.176;16.626;2022-12-13T14:58:30;13.65;;;5.50;;
75680;SDS011;64294;49.176;16.626;2022-12-13T15:00:56;11.00;;;4.90;;
75680;SDS011;64294;49.176;16.626;2022-12-13T15:03:22;12.93;;;6.18;;
75680;SDS011;64294;49.176;16.626;2022-12-13T15:05:53;14.15;;;6.57;;
75680;SDS011;64294;49.176;16.626;2022-12-13T15:08:21;15.57;;;6.18;;
75680;SDS011;64294;49.176;16.626;2022-12-13T15:10:55;14.75;;;6.20;;
75680;SDS011;64294;49.176;16.626;2022-12-13T15:13:38;13.45;;;6.40;;
75680;SDS011;64294;49.176;16.626;2022-12-13T15:16:08;16.17;;;6.63;;
75680;SDS011;64294;49.176;16.626;2022-12-13T15:18:38;15.43;;;5.78;;
75680;SDS011;64294;49.176;16.626;2022-12-13T15:21:16;13.75;;;5.88;;
75680;SDS011;64294;49.176;16.626;2022-12-13T15:23:47;13.15;;;6.20;;
75680;SDS011;64294;49.176;16.626;2022-12-13T15:26:14;13.18;;;5.25;;
75680;SDS011;64294;49.176;16.626;2022-12-13T15:28:45;13.15;;;6.10;;
75680;SDS011;64294;49.176;16.626;2022-12-13T15:31:17;12.23;;;6.28;;
75680;SDS011;64294;49.176;16.626;2022-12-13T15:33:42;12.88;;;5.88;;
75680;SDS011;64294;49.176;16.626;2022-12-13T15:36:09;13.68;;;6.72;;
75680;SDS011;64294;49.176;16.626;2022-12-13T15:38:46;14.68;;;6.13;;
75680;SDS011;64294;49.176;16.626;2022-12-13T15:41:16;13.38;;;6.25;;
75680;SDS011;64294;49.176;16.626;2022-12-13T15:43:43;14.25;;;6.30;;
75680;SDS011;64294;49.176;16.626;2022-12-13T15:46:12;13.13;;;6.20;;
75680;SDS011;64294;49.176;16.626;2022-12-13T15:48:38;13.93;;;5.70;;
75680;SDS011;64294;49.176;16.626;2022-12-13T15:53:32;15.57;;;6.72;;
75680;SDS011;64294;49.176;16.626;2022-12-13T15:55:58;13.65;;;6.60;;
75680;SDS011;64294;49.176;16.626;2022-12-13T15:58:25;13.27;;;6.25;;
75680;SDS011;64294;49.176;16.626;2022-12-13T16:00:57;18.70;;;7.70;;
75680;SDS011;64294;49.176;16.626;2022-12-13T16:03:28;16.27;;;7.03;;
75680;SDS011;64294;49.176;16.626;2022-12-13T16:06:03;18.45;;;6.90;;
75680;SDS011;64294;49.176;16.626;2022-12-13T16:08:31;15.85;;;6.47;;
75680;SDS011;64294;49.176;16.626;2022-12-13T16:11:02;11.98;;;5.78;;
75680;SDS011;64294;49.176;16.626;2022-12-13T16:13:30;18.13;;;7.03;;
75680;SDS011;64294;49.176;16.626;2022-12-13T16:15:58;18.70;;;6.78;;
75680;SDS011;64294;49.176;16.626;2022-12-13T16:21:18;18.35;;;8.98;;
75680;SDS011;64294;49.176;16.626;2022-12-13T16:23:44;23.48;;;10.35;;
75680;SDS011;64294;49.176;16.626;2022-12-13T16:26:12;21.15;;;9.77;;
75680;SDS011;64294;49.176;16.626;2022-12-13T16:28:38;25.88;;;11.38;;
75680;SDS011;64294;49.176;16.626;2022-12-13T16:31:18;23.52;;;11.00;;
75680;SDS011;64294;49.176;16.626;2022-12-13T16:33:47;22.95;;;11.95;;
75680;SDS011;64294;49.176;16.626;2022-12-13T16:36:13;26.52;;;14.35;;
75680;SDS011;64294;49.176;16.626;2022-12-13T16:38:39;28.45;;;13.68;;
75680;SDS011;64294;49.176;16.626;2022-12-13T16:41:04;27.60;;;11.80;;
75680;SDS011;64294;49.176;16.626;2022-12-13T16:43:32;29.58;;;14.50;;
75680;SDS011;64294;49.176;16.626;2022-12-13T16:46:00;34.78;;;16.13;;
75680;SDS011;64294;49.176;16.626;2022-12-13T16:48:28;33.75;;;12.88;;
75680;SDS011;64294;49.176;16.626;2022-12-13T16:50:53;29.23;;;12.07;;
75680;SDS011;64294;49.176;16.626;2022-12-13T16:53:18;25.60;;;11.20;;
75680;SDS011;64294;49.176;16.626;2022-12-13T16:55:44;23.63;;;11.35;;
75680;SDS011;64294;49.176;16.626;2022-12-13T16:58:16;23.50;;;10.18;;